createdAt,value
2019-02-10T00:00:16.820Z,68.86
2019-02-10T00:01:16.779Z,68.86
2019-02-10T00:02:16.717Z,69.38
2019-02-10T00:03:16.689Z,69.07
2019-02-10T00:04:16.681Z,68.76
2019-02-10T00:05:16.660Z,68.76
2019-02-10T00:06:24.344Z,69.07
2019-02-10T00:07:17.719Z,69.27
2019-02-10T00:08:16.648Z,69.48
2019-02-10T00:09:16.647Z,68.76
2019-02-10T00:10:16.597Z,69.38
2019-02-10T00:11:16.618Z,69.79
2019-02-10T00:12:16.624Z,69.59
2019-02-10T00:13:16.596Z,69.62
2019-02-10T00:14:16.605Z,69.93
2019-02-10T00:15:16.600Z,69.93
2019-02-10T00:16:16.675Z,69.72
2019-02-10T00:17:16.577Z,69.93
2019-02-10T00:18:16.572Z,69.82
2019-02-10T00:19:16.535Z,69.72
2019-02-10T00:20:16.564Z,70.03
2019-02-10T00:21:16.545Z,69.96
2019-02-10T00:22:16.725Z,69.82
2019-02-10T00:23:16.476Z,69.93
2019-02-10T00:24:16.505Z,69.93
2019-02-10T00:25:16.462Z,70.06
2019-02-10T00:26:16.467Z,69.96
2019-02-10T00:27:16.449Z,70.57
2019-02-10T00:28:16.426Z,70.06
2019-02-10T00:29:16.437Z,70.17
2019-02-10T00:30:16.407Z,70.57
2019-02-10T00:31:16.404Z,70.57
2019-02-10T00:32:16.372Z,70.17
2019-02-10T00:33:16.362Z,69.96
2019-02-10T00:34:16.409Z,69.96
2019-02-10T00:35:16.385Z,70.17
2019-02-10T00:36:16.374Z,70.06
2019-02-10T00:37:16.361Z,70.17
2019-02-10T00:38:16.322Z,70.47
2019-02-10T00:39:16.348Z,71.09
2019-02-10T00:40:16.327Z,70.37
2019-02-10T00:41:16.329Z,70.89
2019-02-10T00:42:16.302Z,70.17
2019-02-10T00:43:16.284Z,70.78
2019-02-10T00:44:16.330Z,70.78
2019-02-10T00:45:16.245Z,70.03
2019-02-10T00:46:16.278Z,70.13
2019-02-10T00:47:16.286Z,70.03
2019-02-10T00:48:16.245Z,69.96
2019-02-10T00:49:16.287Z,70.06
2019-02-10T00:50:16.293Z,70.03
2019-02-10T00:51:16.246Z,70.23
2019-02-10T00:52:16.245Z,70.03
2019-02-10T00:53:16.202Z,70.03
2019-02-10T00:54:16.161Z,70.23
2019-02-10T00:55:16.300Z,69.93
2019-02-10T00:56:16.126Z,70.86
2019-02-10T00:57:16.141Z,70.54
2019-02-10T00:58:16.130Z,70.34
2019-02-10T00:59:16.158Z,70.57
2019-02-10T01:00:16.121Z,70.34
2019-02-10T01:01:16.101Z,70.13
2019-02-10T01:02:16.085Z,69.96
2019-02-10T01:03:16.146Z,70.54
2019-02-10T01:04:16.085Z,70.78
2019-02-10T01:05:16.041Z,70.96
2019-02-10T01:06:16.103Z,69.96
2019-02-10T01:07:16.179Z,70.54
2019-02-10T01:08:16.085Z,71.30
2019-02-10T01:09:16.074Z,71.06
2019-02-10T01:10:16.041Z,71.26
2019-02-10T01:11:16.106Z,71.41
2019-02-10T01:12:16.068Z,71.37
2019-02-10T01:13:16.057Z,71.58
2019-02-10T01:14:15.970Z,71.47
2019-02-10T01:15:15.990Z,71.92
2019-02-10T01:16:15.955Z,71.30
2019-02-10T01:17:16.001Z,71.41
2019-02-10T01:18:25.389Z,71.51
2019-02-10T01:19:24.897Z,71.92
2019-02-10T01:20:24.953Z,71.81
2019-02-10T01:21:24.504Z,71.71
2019-02-10T01:22:15.846Z,72.44
2019-02-10T01:23:15.834Z,71.51
2019-02-10T01:24:25.029Z,72.33
2019-02-10T01:25:25.022Z,72.33
2019-02-10T01:26:25.037Z,72.13
2019-02-10T01:27:15.812Z,73.26
2019-02-10T01:28:15.781Z,72.99
2019-02-10T01:29:15.787Z,74.12
2019-02-10T01:30:15.911Z,72.88
2019-02-10T01:31:15.777Z,73.81
2019-02-10T01:32:15.769Z,73.71
2019-02-10T01:33:15.752Z,74.05
2019-02-10T01:34:15.725Z,74.36
2019-02-10T01:35:15.748Z,74.57
2019-02-10T01:36:15.726Z,74.57
2019-02-10T01:37:15.828Z,74.71
2019-02-10T01:38:15.711Z,75.22
2019-02-10T01:39:15.675Z,75.32
2019-02-10T01:40:15.725Z,75.32
2019-02-10T01:41:15.646Z,75.43
2019-02-10T01:42:15.630Z,75.53
2019-02-10T01:43:15.646Z,75.57
2019-02-10T01:44:15.617Z,75.67
2019-02-10T01:45:15.616Z,76.09
2019-02-10T01:46:15.615Z,76.29
2019-02-10T01:47:15.622Z,76.29
2019-02-10T01:48:15.595Z,76.81
2019-02-10T01:49:15.557Z,76.70
2019-02-10T01:50:15.595Z,76.91
2019-02-10T01:51:15.551Z,76.91
2019-02-10T01:52:15.553Z,77.36
2019-02-10T01:53:15.571Z,77.22
2019-02-10T01:54:15.510Z,77.36
2019-02-10T01:55:15.492Z,77.36
2019-02-10T01:56:15.512Z,77.67
2019-02-10T01:57:15.494Z,77.87
2019-02-10T01:58:15.485Z,78.29
2019-02-10T01:59:15.541Z,78.19
2019-02-10T02:00:15.474Z,78.19
2019-02-10T02:01:15.445Z,78.81
2019-02-10T02:02:15.437Z,78.91
2019-02-10T02:03:15.438Z,78.33
2019-02-10T02:04:15.437Z,78.81
2019-02-10T02:05:15.396Z,79.02
2019-02-10T02:06:15.390Z,78.95
2019-02-10T02:07:15.411Z,78.91
2019-02-10T02:08:15.401Z,79.05
2019-02-10T02:09:15.375Z,79.36
2019-02-10T02:10:15.364Z,79.16
2019-02-10T02:11:15.342Z,79.16
2019-02-10T02:12:15.331Z,79.47
2019-02-10T02:13:15.321Z,79.36
2019-02-10T02:14:15.313Z,80.08
2019-02-10T02:15:15.294Z,79.77
2019-02-10T02:16:15.365Z,79.98
2019-02-10T02:17:15.272Z,79.98
2019-02-10T02:18:15.272Z,80.71
2019-02-10T02:19:15.270Z,80.50
2019-02-10T02:20:15.256Z,80.54
2019-02-10T02:21:15.221Z,80.60
2019-02-10T02:22:15.220Z,80.71
2019-02-10T02:23:15.213Z,80.50
2019-02-10T02:24:15.222Z,80.22
2019-02-10T02:25:15.198Z,80.22
2019-02-10T02:26:15.328Z,80.12
2019-02-10T02:27:15.227Z,80.29
2019-02-10T02:28:15.174Z,80.19
2019-02-10T02:29:15.181Z,80.40
2019-02-10T02:30:15.178Z,80.29
2019-02-10T02:31:15.148Z,80.54
2019-02-10T02:32:15.187Z,80.54
2019-02-10T02:33:15.161Z,80.81
2019-02-10T02:34:15.133Z,81.16
2019-02-10T02:35:15.101Z,80.95
2019-02-10T02:36:15.173Z,80.95
2019-02-10T02:37:15.091Z,81.26
2019-02-10T02:38:15.092Z,81.05
2019-02-10T02:39:15.100Z,81.05
2019-02-10T02:40:15.058Z,81.51
2019-02-10T02:41:15.071Z,81.57
2019-02-10T02:42:15.050Z,81.82
2019-02-10T02:43:15.029Z,81.68
2019-02-10T02:44:15.067Z,81.68
2019-02-10T02:45:15.004Z,81.88
2019-02-10T02:46:15.039Z,82.71
2019-02-10T02:47:14.987Z,82.60
2019-02-10T02:48:14.999Z,82.19
2019-02-10T02:49:14.952Z,82.60
2019-02-10T02:50:14.955Z,82.60
2019-02-10T02:51:14.899Z,82.71
2019-02-10T02:52:14.931Z,81.99
2019-02-10T02:53:14.950Z,82.60
2019-02-10T02:54:14.881Z,82.71
2019-02-10T02:55:14.871Z,82.50
2019-02-10T02:56:14.858Z,82.60
2019-02-10T02:57:14.863Z,82.29
2019-02-10T02:58:14.869Z,82.40
2019-02-10T02:59:14.870Z,82.50
2019-02-10T03:00:14.835Z,82.71
2019-02-10T03:01:14.810Z,82.71
2019-02-10T03:02:14.792Z,82.65
2019-02-10T03:03:14.807Z,82.60
2019-02-10T03:04:14.775Z,82.29
2019-02-10T03:05:14.903Z,82.29
2019-02-10T03:06:14.799Z,82.29
2019-02-10T03:07:18.069Z,82.29
2019-02-10T03:08:14.766Z,82.19
2019-02-10T03:09:14.790Z,82.34
2019-02-10T03:10:14.728Z,82.44
2019-02-10T03:11:14.703Z,82.34
2019-02-10T03:12:14.728Z,82.44
2019-02-10T03:13:14.761Z,82.23
2019-02-10T03:14:14.736Z,82.34
2019-02-10T03:15:14.716Z,82.54
2019-02-10T03:16:14.671Z,82.54
2019-02-10T03:17:14.720Z,82.23
2019-02-10T03:18:14.693Z,82.34
2019-02-10T03:19:14.701Z,82.44
2019-02-10T03:20:14.636Z,82.34
2019-02-10T03:21:14.716Z,82.65
2019-02-10T03:22:14.599Z,82.54
2019-02-10T03:23:14.572Z,82.75
2019-02-10T03:24:14.554Z,82.44
2019-02-10T03:25:14.768Z,82.65
2019-02-10T03:26:14.604Z,82.58
2019-02-10T03:27:14.765Z,82.89
2019-02-10T03:28:14.563Z,82.79
2019-02-10T03:29:14.527Z,83.00
2019-02-10T03:30:14.560Z,83.06
2019-02-10T03:31:14.570Z,83.06
2019-02-10T03:32:14.493Z,83.00
2019-02-10T03:33:14.516Z,82.79
2019-02-10T03:34:14.462Z,82.75
2019-02-10T03:35:14.494Z,82.79
2019-02-10T03:36:14.486Z,83.10
2019-02-10T03:37:14.509Z,83.10
2019-02-10T03:38:14.426Z,83.10
2019-02-10T03:39:14.427Z,83.10
2019-02-10T03:40:14.428Z,83.10
2019-02-10T03:41:14.414Z,83.10
2019-02-10T03:42:14.400Z,83.31
2019-02-10T03:43:14.389Z,83.51
2019-02-10T03:44:14.341Z,83.51
2019-02-10T03:45:14.390Z,83.31
2019-02-10T03:46:14.323Z,83.00
2019-02-10T03:47:14.298Z,83.10
2019-02-10T03:48:14.326Z,83.31
2019-02-10T03:49:14.281Z,83.31
2019-02-10T03:50:14.367Z,83.10
2019-02-10T03:51:14.288Z,83.41
2019-02-10T03:52:14.465Z,83.10
2019-02-10T03:53:14.295Z,83.10
2019-02-10T03:54:14.674Z,82.79
2019-02-10T03:55:14.293Z,83.00
2019-02-10T03:56:14.265Z,83.31
2019-02-10T03:57:14.290Z,83.10
2019-02-10T03:58:14.217Z,83.00
2019-02-10T03:59:14.208Z,83.41
2019-02-10T04:00:14.212Z,83.10
2019-02-10T04:01:14.304Z,83.10
2019-02-10T04:02:14.159Z,82.89
2019-02-10T04:03:14.273Z,83.31
2019-02-10T04:04:14.137Z,83.00
2019-02-10T04:05:16.599Z,83.41
2019-02-10T04:06:14.170Z,83.51
2019-02-10T04:07:15.120Z,83.00
2019-02-10T04:08:16.672Z,83.10
2019-02-10T04:09:14.088Z,83.31
2019-02-10T04:10:14.189Z,83.45
2019-02-10T04:11:14.047Z,83.31
2019-02-10T04:12:14.058Z,83.55
2019-02-10T04:13:14.278Z,83.41
2019-02-10T04:14:15.090Z,83.62
2019-02-10T04:15:15.018Z,83.55
2019-02-10T04:16:14.077Z,83.62
2019-02-10T04:17:14.024Z,83.72
2019-02-10T04:18:14.064Z,83.31
2019-02-10T04:19:14.070Z,83.34
2019-02-10T04:20:14.022Z,83.31
2019-02-10T04:21:13.996Z,83.55
2019-02-10T04:22:13.934Z,83.55
2019-02-10T04:23:13.955Z,83.65
2019-02-10T04:24:13.919Z,84.07
2019-02-10T04:25:13.921Z,83.65
2019-02-10T04:26:13.997Z,84.07
2019-02-10T04:27:14.118Z,83.97
2019-02-10T04:28:13.895Z,83.86
2019-02-10T04:29:13.890Z,84.38
2019-02-10T04:30:13.898Z,84.28
2019-02-10T04:31:13.893Z,83.97
2019-02-10T04:32:13.843Z,83.76
2019-02-10T04:33:13.841Z,83.65
2019-02-10T04:34:13.861Z,83.97
2019-02-10T04:35:13.812Z,84.17
2019-02-10T04:37:30.973Z,84.07
2019-02-10T04:38:32.131Z,83.65
2019-02-10T04:39:30.854Z,83.76
2019-02-10T04:40:30.830Z,83.86
2019-02-10T04:41:30.836Z,84.07
2019-02-10T04:42:30.826Z,84.07
2019-02-10T04:43:30.836Z,84.07
2019-02-10T04:44:30.783Z,84.17
2019-02-10T04:45:30.776Z,83.97
2019-02-10T04:46:30.768Z,84.07
2019-02-10T04:47:30.819Z,84.17
2019-02-10T04:48:30.769Z,84.38
2019-02-10T04:49:31.216Z,84.07
2019-02-10T04:50:30.737Z,83.97
2019-02-10T04:51:30.739Z,83.86
2019-02-10T04:52:31.708Z,83.76
2019-02-10T04:53:32.155Z,83.55
2019-02-10T04:54:31.736Z,83.45
2019-02-10T04:55:31.166Z,83.76
2019-02-10T04:56:30.881Z,83.55
2019-02-10T04:57:30.977Z,83.55
2019-02-10T04:58:30.731Z,83.65
2019-02-10T04:59:32.321Z,83.86
2019-02-10T05:00:30.633Z,83.45
2019-02-10T05:01:30.615Z,83.86
2019-02-10T05:02:30.961Z,83.45
2019-02-10T05:03:31.024Z,83.65
2019-02-10T05:04:30.620Z,83.34
2019-02-10T05:05:31.568Z,83.65
2019-02-10T05:06:31.280Z,83.76
2019-02-10T05:07:33.838Z,84.07
2019-02-10T05:08:31.466Z,83.55
2019-02-10T05:09:32.421Z,84.17
2019-02-10T05:10:31.662Z,83.97
2019-02-10T05:11:32.410Z,84.17
2019-02-10T05:12:31.439Z,84.17
2019-02-10T05:13:31.057Z,83.97
2019-02-10T05:14:31.118Z,84.17
2019-02-10T05:15:30.466Z,84.07
2019-02-10T05:16:30.505Z,84.07
2019-02-10T05:17:30.471Z,84.17
2019-02-10T05:18:30.496Z,84.38
2019-02-10T05:19:30.466Z,84.07
2019-02-10T05:20:30.450Z,83.97
2019-02-10T05:21:30.409Z,84.17
2019-02-10T05:22:30.408Z,83.97
2019-02-10T05:23:30.393Z,83.65
2019-02-10T05:24:30.385Z,83.62
2019-02-10T05:25:30.512Z,83.45
2019-02-10T05:26:30.362Z,83.45
2019-02-10T05:27:30.352Z,83.51
2019-02-10T05:28:30.352Z,83.62
2019-02-10T05:29:30.342Z,83.62
2019-02-10T05:30:30.347Z,83.55
2019-02-10T05:31:30.304Z,83.72
2019-02-10T05:32:30.294Z,83.62
2019-02-10T05:33:30.290Z,83.62
2019-02-10T05:34:30.306Z,83.83
2019-02-10T05:35:30.337Z,83.31
2019-02-10T05:36:30.360Z,83.20
2019-02-10T05:37:30.250Z,83.10
2019-02-10T05:38:30.232Z,83.10
2019-02-10T05:39:30.234Z,82.79
2019-02-10T05:40:30.261Z,83.20
2019-02-10T05:41:30.252Z,83.51
2019-02-10T05:42:30.189Z,83.62
2019-02-10T05:43:30.187Z,82.89
2019-02-10T05:44:30.207Z,83.20
2019-02-10T05:45:30.166Z,83.10
2019-02-10T05:46:30.182Z,82.79
2019-02-10T05:47:30.129Z,82.68
2019-02-10T05:48:30.135Z,82.48
2019-02-10T05:49:30.174Z,82.48
2019-02-10T05:50:30.107Z,82.58
2019-02-10T05:51:30.111Z,82.95
2019-02-10T05:52:32.674Z,82.79
2019-02-10T05:53:30.809Z,82.65
2019-02-10T05:54:30.137Z,82.65
2019-02-10T05:55:30.078Z,82.65
2019-02-10T05:56:30.168Z,82.34
2019-02-10T05:57:30.114Z,82.54
2019-02-10T05:58:30.059Z,82.86
2019-02-10T05:59:30.011Z,82.44
2019-02-10T06:00:30.031Z,82.75
2019-02-10T06:01:29.991Z,82.65
2019-02-10T06:02:29.991Z,82.65
2019-02-10T06:03:29.987Z,82.34
2019-02-10T06:04:29.987Z,82.23
2019-02-10T06:05:29.940Z,82.13
2019-02-10T06:06:29.936Z,82.29
2019-02-10T06:07:29.927Z,82.50
2019-02-10T06:08:29.910Z,82.54
2019-02-10T06:09:29.922Z,82.86
2019-02-10T06:10:29.907Z,82.03
2019-02-10T06:11:29.868Z,81.99
2019-02-10T06:12:29.900Z,81.68
2019-02-10T06:13:29.856Z,81.68
2019-02-10T06:14:30.018Z,81.57
2019-02-10T06:15:29.924Z,81.26
2019-02-10T06:16:29.826Z,81.26
2019-02-10T06:17:29.828Z,81.16
2019-02-10T06:18:29.791Z,81.05
2019-02-10T06:19:29.792Z,81.26
2019-02-10T06:20:29.819Z,81.05
2019-02-10T06:21:29.811Z,81.05
2019-02-10T06:22:29.758Z,81.12
2019-02-10T06:23:29.756Z,81.33
2019-02-10T06:24:29.774Z,81.05
2019-02-10T06:25:29.748Z,81.02
2019-02-10T06:26:29.729Z,81.02
2019-02-10T06:27:29.709Z,80.91
2019-02-10T06:28:29.740Z,81.02
2019-02-10T06:29:29.687Z,80.91
2019-02-10T06:30:29.733Z,80.95
2019-02-10T06:31:29.689Z,81.02
2019-02-10T06:32:29.656Z,80.74
2019-02-10T06:33:29.663Z,80.71
2019-02-10T06:34:29.641Z,80.91
2019-02-10T06:35:29.619Z,80.81
2019-02-10T06:36:29.649Z,80.91
2019-02-10T06:37:29.623Z,80.71
2019-02-10T06:38:29.605Z,80.50
2019-02-10T06:39:29.589Z,80.81
2019-02-10T06:40:29.592Z,80.81
2019-02-10T06:41:29.560Z,80.81
2019-02-10T06:42:29.538Z,80.50
2019-02-10T06:43:29.546Z,80.19
2019-02-10T06:44:29.547Z,80.29
2019-02-10T06:45:29.537Z,80.29
2019-02-10T06:46:29.543Z,80.91
2019-02-10T06:47:29.503Z,80.29
2019-02-10T06:48:29.491Z,80.40
2019-02-10T06:49:29.473Z,80.60
2019-02-10T06:50:29.482Z,80.50
2019-02-10T06:51:29.465Z,80.50
2019-02-10T06:52:29.467Z,80.50
2019-02-10T06:53:29.449Z,80.40
2019-02-10T06:54:29.431Z,80.40
2019-02-10T06:55:29.413Z,80.71
2019-02-10T06:56:29.394Z,80.60
2019-02-10T06:57:29.419Z,80.60
2019-02-10T06:58:29.394Z,80.67
2019-02-10T06:59:29.370Z,80.57
2019-02-10T07:00:29.363Z,80.29
2019-02-10T07:01:29.421Z,80.15
2019-02-10T07:02:29.374Z,80.26
2019-02-10T07:03:29.365Z,79.94
2019-02-10T07:04:29.335Z,80.15
2019-02-10T07:05:29.344Z,80.15
2019-02-10T07:06:29.304Z,80.26
2019-02-10T07:07:29.296Z,80.15
2019-02-10T07:08:30.719Z,79.94
2019-02-10T07:09:29.275Z,80.15
2019-02-10T07:10:29.263Z,80.05
2019-02-10T07:11:29.284Z,80.15
2019-02-10T07:12:29.283Z,80.22
2019-02-10T07:13:29.248Z,79.63
2019-02-10T07:14:29.236Z,79.33
2019-02-10T07:15:29.234Z,79.53
2019-02-10T07:16:29.202Z,79.12
2019-02-10T07:17:29.208Z,79.19
2019-02-10T07:18:29.221Z,79.60
2019-02-10T07:19:29.173Z,79.43
2019-02-10T07:20:29.147Z,79.12
2019-02-10T07:21:29.148Z,79.43
2019-02-10T07:22:29.134Z,78.70
2019-02-10T07:23:29.133Z,79.08
2019-02-10T07:24:29.160Z,78.98
2019-02-10T07:25:29.105Z,79.49
2019-02-10T07:26:29.091Z,79.39
2019-02-10T07:27:29.106Z,78.98
2019-02-10T07:28:29.076Z,78.67
2019-02-10T07:29:29.079Z,78.88
2019-02-10T07:30:29.086Z,79.49
2019-02-10T07:31:29.045Z,78.77
2019-02-10T07:32:29.035Z,78.67
2019-02-10T07:33:29.030Z,78.98
2019-02-10T07:34:29.052Z,78.98
2019-02-10T07:35:29.034Z,79.19
2019-02-10T07:36:28.998Z,78.98
2019-02-10T07:37:28.981Z,78.42
2019-02-10T07:38:28.976Z,78.15
2019-02-10T07:39:28.969Z,78.42
2019-02-10T07:40:29.005Z,78.11
2019-02-10T07:41:28.926Z,78.42
2019-02-10T07:42:28.925Z,78.11
2019-02-10T07:43:28.957Z,78.22
2019-02-10T07:44:28.922Z,78.53
2019-02-10T07:45:28.909Z,78.22
2019-02-10T07:46:28.894Z,78.74
2019-02-10T07:47:28.897Z,78.84
2019-02-10T07:48:28.895Z,78.42
2019-02-10T07:49:28.869Z,78.11
2019-02-10T07:50:28.904Z,78.32
2019-02-10T07:51:28.885Z,78.08
2019-02-10T07:52:39.280Z,78.11
2019-02-10T07:54:51.190Z,78.59
2019-02-10T07:55:51.194Z,78.18
2019-02-10T07:56:51.210Z,78.39
2019-02-10T07:57:51.172Z,78.49
2019-02-10T07:58:51.161Z,78.18
2019-02-10T07:59:51.137Z,78.70
2019-02-10T08:00:51.127Z,78.49
2019-02-10T08:01:51.128Z,78.59
2019-02-10T08:02:51.134Z,77.87
2019-02-10T08:03:51.099Z,78.18
2019-02-10T08:04:51.081Z,78.08
2019-02-10T08:05:51.076Z,77.98
2019-02-10T08:06:51.123Z,78.08
2019-02-10T08:07:51.056Z,78.08
2019-02-10T08:08:51.054Z,78.18
2019-02-10T08:09:51.036Z,77.87
2019-02-10T08:10:51.039Z,77.84
2019-02-10T08:11:51.008Z,78.05
2019-02-10T08:12:51.018Z,78.28
2019-02-10T08:13:50.992Z,78.35
2019-02-10T08:14:51.001Z,78.08
2019-02-10T08:15:50.973Z,78.14
2019-02-10T08:16:50.984Z,78.80
2019-02-10T08:17:59.871Z,78.49
2019-02-10T08:18:50.947Z,79.08
2019-02-10T08:20:00.409Z,79.08
2019-02-10T08:22:08.356Z,79.22
2019-02-10T08:23:08.361Z,79.80
2019-02-10T08:24:17.216Z,80.42
2019-02-10T08:25:17.280Z,80.73
2019-02-10T08:26:17.772Z,80.87
2019-02-10T08:27:17.811Z,81.56
2019-02-10T08:28:17.847Z,80.97
2019-02-10T08:29:17.377Z,81.45
2019-02-10T08:30:17.420Z,81.59
2019-02-10T08:31:17.436Z,82.10
2019-02-10T08:32:17.474Z,82.00
2019-02-10T08:34:25.636Z,82.59
2019-02-10T08:35:36.055Z,82.21
2019-02-10T08:36:34.054Z,82.83
2019-02-10T08:38:35.715Z,83.20
2019-02-10T08:39:35.817Z,83.25
2019-02-10T08:40:35.714Z,83.04
2019-02-10T08:41:35.754Z,84.07
2019-02-10T08:42:35.744Z,83.76
2019-02-10T08:43:35.663Z,84.28
2019-02-10T08:44:35.648Z,84.69
2019-02-10T08:45:35.648Z,85.21
2019-02-10T08:46:35.681Z,85.00
2019-02-10T08:47:35.618Z,85.10
2019-02-10T08:48:35.628Z,84.79
2019-02-10T08:49:35.614Z,85.31
2019-02-10T08:50:35.583Z,85.93
2019-02-10T08:51:35.581Z,86.24
2019-02-10T08:52:35.563Z,86.20
2019-02-10T08:53:35.664Z,85.62
2019-02-10T08:54:35.542Z,85.89
2019-02-10T08:55:35.545Z,86.24
2019-02-10T08:56:36.636Z,86.44
2019-02-10T08:57:35.530Z,86.34
2019-02-10T08:58:35.517Z,86.82
2019-02-10T08:59:35.510Z,86.96
2019-02-10T09:00:35.508Z,87.58
2019-02-10T09:01:35.474Z,87.37
2019-02-10T09:02:35.461Z,87.99
2019-02-10T09:03:35.481Z,87.79
2019-02-10T09:04:35.463Z,87.37
2019-02-10T09:05:35.425Z,87.99
2019-02-10T09:06:35.439Z,88.20
2019-02-10T09:07:35.430Z,88.71
2019-02-10T09:08:35.407Z,88.20
2019-02-10T09:09:35.407Z,88.82
2019-02-10T09:10:35.424Z,89.03
2019-02-10T09:11:35.395Z,89.34
2019-02-10T09:12:35.365Z,89.75
2019-02-10T09:13:35.346Z,89.65
2019-02-10T09:14:35.345Z,89.95
2019-02-10T09:15:35.334Z,90.37
2019-02-10T09:16:35.330Z,90.72
2019-02-10T09:17:35.325Z,90.72
2019-02-10T09:18:35.313Z,91.09
2019-02-10T09:19:35.281Z,91.40
2019-02-10T09:20:35.307Z,91.40
2019-02-10T09:21:35.267Z,91.55
2019-02-10T09:22:35.256Z,91.55
2019-02-10T09:23:35.253Z,92.17
2019-02-10T09:24:35.250Z,91.65
2019-02-10T09:25:35.242Z,91.96
2019-02-10T09:26:35.227Z,91.96
2019-02-10T09:27:35.217Z,92.68
2019-02-10T09:28:35.204Z,93.10
2019-02-10T09:29:35.187Z,92.89
2019-02-10T09:30:35.215Z,92.89
2019-02-10T09:31:35.174Z,92.68
2019-02-10T09:32:35.152Z,92.99
2019-02-10T09:33:35.171Z,92.79
2019-02-10T09:34:35.141Z,92.68
2019-02-10T09:35:35.147Z,93.10
2019-02-10T09:36:35.118Z,93.51
2019-02-10T09:37:35.100Z,93.10
2019-02-10T09:38:35.093Z,93.62
2019-02-10T09:39:35.115Z,93.41
2019-02-10T09:40:35.087Z,93.55
2019-02-10T09:41:35.068Z,93.93
2019-02-10T09:42:35.057Z,94.03
2019-02-10T09:43:35.070Z,93.93
2019-02-10T09:44:35.059Z,93.82
2019-02-10T09:45:35.034Z,94.44
2019-02-10T09:46:35.073Z,94.44
2019-02-10T09:47:35.010Z,93.82
2019-02-10T09:48:35.015Z,93.62
2019-02-10T09:49:34.996Z,93.62
2019-02-10T09:50:35.004Z,93.78
2019-02-10T09:51:36.839Z,94.44
2019-02-10T09:52:37.443Z,94.54
2019-02-10T09:53:37.115Z,93.82
2019-02-10T09:54:35.791Z,93.82
2019-02-10T09:55:36.383Z,93.93
2019-02-10T09:56:57.887Z,94.34
2019-02-10T09:57:39.373Z,94.03
2019-02-10T09:58:44.221Z,94.23
2019-02-10T09:59:37.842Z,93.93
2019-02-10T10:00:42.727Z,94.54
2019-02-10T10:01:34.971Z,94.44
2019-02-10T10:02:35.485Z,94.44
2019-02-10T10:03:34.978Z,93.72
2019-02-10T10:04:34.872Z,94.07
2019-02-10T10:05:35.755Z,93.41
2019-02-10T10:06:34.824Z,93.30
2019-02-10T10:07:36.147Z,93.20
2019-02-10T10:08:34.809Z,93.82
2019-02-10T10:09:34.817Z,94.34
2019-02-10T10:10:34.795Z,94.34
2019-02-10T10:11:34.789Z,94.13
2019-02-10T10:12:34.754Z,94.75
2019-02-10T10:13:34.740Z,94.23
2019-02-10T10:14:34.814Z,94.85
2019-02-10T10:15:34.748Z,93.82
2019-02-10T10:16:34.777Z,94.34
2019-02-10T10:17:34.703Z,94.38
2019-02-10T10:18:34.700Z,93.93
2019-02-10T10:19:34.675Z,94.59
2019-02-10T10:20:34.658Z,94.18
2019-02-10T10:21:34.671Z,94.48
2019-02-10T10:22:34.635Z,94.96
2019-02-10T10:23:34.705Z,94.69
2019-02-10T10:24:34.638Z,94.90
2019-02-10T10:25:34.719Z,94.96
2019-02-10T10:26:34.626Z,95.06
2019-02-10T10:27:34.622Z,94.90
2019-02-10T10:28:34.619Z,95.00
2019-02-10T10:29:34.561Z,95.00
2019-02-10T10:30:34.582Z,95.10
2019-02-10T10:31:34.598Z,95.21
2019-02-10T10:32:34.553Z,95.62
2019-02-10T10:33:34.571Z,95.42
2019-02-10T10:34:34.585Z,95.31
2019-02-10T10:35:34.518Z,95.83
2019-02-10T10:36:44.245Z,95.73
2019-02-10T10:37:34.469Z,95.94
2019-02-10T10:38:34.480Z,95.62
2019-02-10T10:39:34.467Z,95.94
2019-02-10T10:40:34.530Z,96.03
2019-02-10T10:41:34.450Z,95.83
2019-02-10T10:42:34.449Z,95.94
2019-02-10T10:43:34.490Z,95.83
2019-02-10T10:44:34.463Z,96.14
2019-02-10T10:45:34.440Z,95.94
2019-02-10T10:46:34.426Z,96.03
2019-02-10T10:47:34.430Z,95.73
2019-02-10T10:48:34.397Z,95.94
2019-02-10T10:49:34.393Z,95.94
2019-02-10T10:50:34.365Z,95.94
2019-02-10T10:51:34.369Z,95.83
2019-02-10T10:52:34.345Z,96.30
2019-02-10T10:53:34.361Z,96.97
2019-02-10T10:54:42.419Z,96.34
2019-02-10T10:55:35.293Z,95.68
2019-02-10T10:56:34.328Z,95.52
2019-02-10T10:57:34.278Z,96.14
2019-02-10T10:58:34.272Z,96.09
2019-02-10T10:59:34.284Z,95.94
2019-02-10T11:00:34.274Z,96.09
2019-02-10T11:01:34.252Z,95.99
2019-02-10T11:02:34.225Z,96.20
2019-02-10T11:03:34.236Z,97.23
2019-02-10T11:04:34.219Z,96.82
2019-02-10T11:05:34.234Z,96.92
2019-02-10T11:06:34.241Z,96.51
2019-02-10T11:07:34.265Z,96.30
2019-02-10T11:08:34.167Z,97.02
2019-02-10T11:09:35.656Z,96.72
2019-02-10T11:10:34.179Z,96.30
2019-02-10T11:11:34.179Z,96.09
2019-02-10T11:12:34.137Z,96.51
2019-02-10T11:13:34.110Z,96.51
2019-02-10T11:14:34.112Z,96.51
2019-02-10T11:15:34.103Z,96.51
2019-02-10T11:16:34.123Z,96.61
2019-02-10T11:17:34.119Z,96.61
2019-02-10T11:18:34.113Z,96.51
2019-02-10T11:19:34.074Z,97.08
2019-02-10T11:20:34.051Z,96.88
2019-02-10T11:21:34.045Z,96.72
2019-02-10T11:22:34.030Z,96.67
2019-02-10T11:23:34.038Z,96.36
2019-02-10T11:24:33.995Z,96.15
2019-02-10T11:25:33.983Z,96.98
2019-02-10T11:26:33.994Z,96.67
2019-02-10T11:27:34.040Z,96.15
2019-02-10T11:28:33.964Z,95.95
2019-02-10T11:29:33.985Z,95.95
2019-02-10T11:30:33.955Z,96.26
2019-02-10T11:31:33.923Z,95.49
2019-02-10T11:32:33.952Z,95.39
2019-02-10T11:33:34.079Z,95.74
2019-02-10T11:34:33.910Z,95.59
2019-02-10T11:35:33.962Z,95.70
2019-02-10T11:36:33.899Z,95.90
2019-02-10T11:37:33.870Z,95.90
2019-02-10T11:38:33.905Z,95.80
2019-02-10T11:39:33.857Z,95.39
2019-02-10T11:40:33.868Z,95.03
2019-02-10T11:41:33.847Z,95.24
2019-02-10T11:42:33.833Z,95.14
2019-02-10T11:43:34.163Z,94.72
2019-02-10T11:44:33.851Z,94.93
2019-02-10T11:45:33.784Z,94.72
2019-02-10T11:46:33.804Z,95.03
2019-02-10T11:47:33.817Z,94.52
2019-02-10T11:48:33.771Z,94.68
2019-02-10T11:49:33.749Z,94.21
2019-02-10T11:50:33.787Z,93.96
2019-02-10T11:51:33.721Z,94.47
2019-02-10T11:52:33.747Z,94.68
2019-02-10T11:53:33.709Z,93.75
2019-02-10T11:54:33.689Z,94.32
2019-02-10T11:55:34.163Z,93.65
2019-02-10T11:56:33.669Z,93.75
2019-02-10T11:57:33.661Z,93.85
2019-02-10T11:58:33.673Z,93.30
2019-02-10T11:59:33.755Z,93.65
2019-02-10T12:00:33.706Z,93.75
2019-02-10T12:01:33.621Z,94.37
2019-02-10T12:02:38.087Z,94.27
2019-02-10T12:03:33.604Z,93.65
2019-02-10T12:04:33.603Z,94.23
2019-02-10T12:05:33.770Z,94.37
2019-02-10T12:06:33.988Z,93.85
2019-02-10T12:07:33.727Z,93.81
2019-02-10T12:08:35.809Z,93.09
2019-02-10T12:09:33.771Z,93.09
2019-02-10T12:10:33.855Z,93.19
2019-02-10T12:11:33.675Z,92.78
2019-02-10T12:12:33.945Z,93.09
2019-02-10T12:13:33.879Z,92.88
2019-02-10T12:14:33.764Z,92.99
2019-02-10T12:15:33.733Z,92.78
2019-02-10T12:16:33.884Z,92.99
2019-02-10T12:17:33.539Z,92.99
2019-02-10T12:18:33.498Z,92.78
2019-02-10T12:19:33.541Z,92.74
2019-02-10T12:20:33.460Z,92.57
2019-02-10T12:21:33.432Z,92.57
2019-02-10T12:22:33.482Z,93.19
2019-02-10T12:23:33.447Z,93.09
2019-02-10T12:24:33.395Z,93.71
2019-02-10T12:25:33.478Z,93.71
2019-02-10T12:26:33.381Z,94.32
2019-02-10T12:27:33.368Z,93.81
2019-02-10T12:28:33.390Z,93.60
2019-02-10T12:29:33.373Z,92.88
2019-02-10T12:30:33.368Z,93.71
2019-02-10T12:31:33.395Z,93.81
2019-02-10T12:32:33.302Z,93.40
2019-02-10T12:33:33.388Z,93.19
2019-02-10T12:34:33.303Z,93.30
2019-02-10T12:35:34.073Z,93.25
2019-02-10T12:36:33.304Z,92.53
2019-02-10T12:37:33.273Z,92.57
2019-02-10T12:38:33.248Z,92.47
2019-02-10T12:39:33.454Z,92.74
2019-02-10T12:40:33.292Z,92.33
2019-02-10T12:41:33.310Z,92.74
2019-02-10T12:42:33.246Z,92.74
2019-02-10T12:43:33.213Z,92.53
2019-02-10T12:44:33.174Z,92.63
2019-02-10T12:45:33.260Z,93.15
2019-02-10T12:46:33.152Z,93.15
2019-02-10T12:47:33.173Z,92.84
2019-02-10T12:48:33.135Z,93.35
2019-02-10T12:49:33.154Z,93.35
2019-02-10T12:50:33.184Z,93.35
2019-02-10T12:51:33.140Z,92.22
2019-02-10T12:52:33.244Z,92.38
2019-02-10T12:53:33.144Z,92.29
2019-02-10T12:54:33.084Z,92.90
2019-02-10T12:55:33.110Z,92.84
2019-02-10T12:56:33.116Z,92.80
2019-02-10T12:57:33.096Z,92.43
2019-02-10T12:58:33.043Z,92.74